Time;durP1;ratioP1;P1;durP2;ratioP2;P2;SDS_P1;SDS_P2;PMS_P1;PMS_P2;Temp;Humidity;BMP_temperature;BMP_pressure;BME280_temperature;BME280_humidity;BME280_pressure;Samples;Min_cycle;Max_cycle;Signal;HPM_P1;HPM_P2
2021/11/16 00:00:12;;;;;;;3.28;1.73;;;21.50;51.40;;;;;;5070525;28;20450;-56
2021/11/16 00:02:40;;;;;;;8.98;2.03;;;21.50;49.80;;;;;;5069453;28;20028;-62
2021/11/16 00:05:08;;;;;;;2.88;1.20;;;21.50;50.20;;;;;;5065522;28;20020;-58
2021/11/16 00:07:36;;;;;;;2.17;1.25;;;21.50;53.50;;;;;;5070592;28;20414;-56
2021/11/16 00:10:05;;;;;;;10.98;3.05;;;21.50;53.70;;;;;;5070565;28;20505;-54
2021/11/16 00:12:32;;;;;;;3.88;1.35;;;21.50;51.70;;;;;;5067766;28;20033;-61
2021/11/16 00:15:00;;;;;;;2.45;1.38;;;21.60;51.30;;;;;;5072470;28;20103;-58
2021/11/16 00:17:27;;;;;;;7.60;1.60;;;21.60;50.00;;;;;;5070703;28;20095;-58
2021/11/16 00:19:55;;;;;;;71.78;12.57;;;21.60;51.20;;;;;;5071671;28;20047;-58
2021/11/16 00:22:23;;;;;;;7.05;1.83;;;21.70;50.50;;;;;;5070940;28;20016;-57
2021/11/16 00:25:32;;;;;;;5.43;1.92;;;21.70;49.90;;;;;;5072614;28;20103;-58
2021/11/16 00:27:45;;;;;;;2.15;1.00;;;21.70;53.30;;;;;;5071957;28;20044;-59
2021/11/16 00:30:15;;;;;;;4.25;1.00;;;21.70;51.30;;;;;;5072072;28;20029;-60
2021/11/16 00:32:43;;;;;;;3.03;1.40;;;21.70;51.70;;;;;;5071975;28;20029;-56
2021/11/16 00:35:11;;;;;;;6.18;1.58;;;21.70;53.00;;;;;;5072090;28;20028;-59
2021/11/16 00:37:39;;;;;;;2.78;1.30;;;21.70;50.80;;;;;;5072350;28;20040;-58
2021/11/16 00:40:10;;;;;;;4.32;1.25;;;21.60;51.30;;;;;;5071873;28;20417;-58
2021/11/16 00:42:38;;;;;;;3.75;1.50;;;21.70;52.10;;;;;;5072257;28;20538;-60
2021/11/16 00:45:06;;;;;;;4.47;1.23;;;21.70;52.60;;;;;;5071906;28;20329;-58
2021/11/16 00:47:34;;;;;;;4.22;1.77;;;21.70;51.50;;;;;;5072177;28;20024;-58
2021/11/16 00:50:01;;;;;;;2.22;1.15;;;21.70;51.20;;;;;;5071992;28;20024;-58
2021/11/16 00:52:29;;;;;;;4.55;2.08;;;21.70;53.10;;;;;;5069982;28;20056;-57
2021/11/16 00:54:56;;;;;;;2.60;1.42;;;21.80;50.20;;;;;;5071496;28;20032;-58
2021/11/16 00:57:24;;;;;;;3.25;1.25;;;21.80;50.90;;;;;;5075621;28;20089;-59
2021/11/16 00:59:52;;;;;;;4.65;1.50;;;21.80;51.40;;;;;;5076180;28;20103;-56
2021/11/16 01:02:19;;;;;;;3.08;0.82;;;21.80;53.60;;;;;;5075538;28;20025;-58
2021/11/16 01:04:51;;;;;;;3.63;1.50;;;21.70;52.80;;;;;;5076107;28;20048;-59
2021/11/16 01:07:19;;;;;;;3.85;0.98;;;21.80;53.70;;;;;;5075889;28;20397;-57
2021/11/16 01:09:47;;;;;;;3.78;1.50;;;21.80;52.60;;;;;;5075942;28;20063;-59
2021/11/16 01:12:17;;;;;;;2.95;1.27;;;21.80;53.20;;;;;;5075710;28;20508;-59
2021/11/16 01:14:46;;;;;;;2.72;0.95;;;21.80;52.60;;;;;;5075433;28;20024;-57
2021/11/16 01:17:14;;;;;;;4.18;1.30;;;21.90;53.00;;;;;;5075277;28;20032;-60
2021/11/16 01:19:42;;;;;;;2.60;1.10;;;21.90;52.60;;;;;;5075782;28;20021;-60
2021/11/16 01:22:10;;;;;;;3.78;1.23;;;21.90;52.70;;;;;;5075558;28;20402;-57
2021/11/16 01:24:37;;;;;;;3.50;1.30;;;21.90;52.90;;;;;;5075139;28;20074;-58
2021/11/16 01:27:07;;;;;;;3.30;1.33;;;22.00;53.30;;;;;;5075081;28;20095;-56
2021/11/16 01:29:38;;;;;;;5.28;1.10;;;21.90;52.80;;;;;;5075475;28;20052;-59
2021/11/16 01:32:13;;;;;;;3.00;1.15;;;21.90;53.40;;;;;;5075094;28;20101;-59
2021/11/16 01:34:46;;;;;;;2.28;1.20;;;22.00;53.00;;;;;;5074622;28;20421;-61
2021/11/16 01:37:14;;;;;;;2.97;1.20;;;22.00;52.60;;;;;;5075924;28;20033;-59
2021/11/16 01:39:42;;;;;;;2.22;0.95;;;22.00;53.10;;;;;;5075248;28;20078;-57
2021/11/16 01:42:09;;;;;;;2.20;1.00;;;22.00;52.90;;;;;;5075206;28;20039;-60
2021/11/16 01:44:38;;;;;;;4.25;1.15;;;22.10;52.70;;;;;;5075071;28;20029;-59
2021/11/16 01:47:05;;;;;;;3.47;1.00;;;22.10;52.90;;;;;;5074829;28;20028;-61
2021/11/16 01:49:33;;;;;;;6.68;1.35;;;22.10;53.50;;;;;;5075075;28;20442;-56
2021/11/16 01:52:00;;;;;;;4.20;1.38;;;22.10;53.50;;;;;;5074562;28;20040;-58
2021/11/16 01:54:28;;;;;;;3.33;1.15;;;22.20;52.60;;;;;;5074641;28;20021;-59
2021/11/16 01:56:55;;;;;;;9.70;1.17;;;22.20;53.90;;;;;;5073776;28;20427;-59
2021/11/16 01:59:23;;;;;;;2.47;0.90;;;22.20;53.10;;;;;;5074479;28;20044;-58
2021/11/16 02:01:51;;;;;;;4.05;1.25;;;22.20;53.50;;;;;;5065430;28;20032;-54
2021/11/16 02:04:22;;;;;;;2.80;0.75;;;22.20;54.00;;;;;;5070952;28;20031;-58
2021/11/16 02:06:51;;;;;;;1.15;0.65;;;22.20;53.50;;;;;;5070934;28;20021;-55
2021/11/16 02:09:19;;;;;;;2.30;0.95;;;22.30;53.20;;;;;;5070986;28;20059;-56
2021/11/16 02:11:47;;;;;;;8.68;1.10;;;22.30;53.20;;;;;;5071505;28;20017;-54
2021/11/16 02:14:17;;;;;;;4.15;0.98;;;22.30;52.50;;;;;;5070085;28;20036;-54
2021/11/16 02:16:46;;;;;;;2.50;1.00;;;22.30;53.50;;;;;;5070702;28;20035;-60
2021/11/16 02:19:16;;;;;;;5.97;1.63;;;22.10;49.80;;;;;;5071758;28;20032;-59
2021/11/16 02:21:44;;;;;;;3.50;1.33;;;21.80;47.00;;;;;;5071857;28;20040;-61
2021/11/16 02:24:12;;;;;;;2.85;1.33;;;21.50;47.70;;;;;;5067619;28;20016;-57
2021/11/16 02:26:39;;;;;;;3.53;1.38;;;21.40;48.60;;;;;;5069683;28;20089;-57
2021/11/16 02:29:08;;;;;;;3.92;2.63;;;21.00;48.20;;;;;;5071781;28;20028;-61
2021/11/16 02:31:36;;;;;;;6.32;2.08;;;21.10;48.80;;;;;;5071101;28;20425;-60
2021/11/16 02:34:05;;;;;;;5.03;2.75;;;21.40;48.80;;;;;;5067374;28;20154;-59
2021/11/16 02:36:34;;;;;;;5.57;2.65;;;21.60;49.00;;;;;;5070835;28;20045;-60
2021/11/16 02:39:08;;;;;;;4.00;1.77;;;21.60;49.40;;;;;;5071551;28;20391;-62
2021/11/16 02:41:38;;;;;;;6.05;2.03;;;21.60;48.40;;;;;;5070100;28;20033;-58
2021/11/16 02:44:06;;;;;;;4.65;3.28;;;21.80;49.80;;;;;;5065131;28;20029;-63
2021/11/16 02:46:35;;;;;;;7.50;3.15;;;21.80;50.10;;;;;;5071156;28;20413;-61
2021/11/16 02:49:03;;;;;;;4.85;2.13;;;21.90;51.00;;;;;;5070270;28;20032;-55
2021/11/16 02:51:36;;;;;;;5.97;2.50;;;21.80;48.00;;;;;;5070721;28;20593;-62
2021/11/16 02:54:15;;;;;;;6.72;1.80;;;21.70;53.30;;;;;;5067449;28;20055;-58
2021/11/16 02:56:43;;;;;;;11.50;1.58;;;21.40;48.30;;;;;;5070058;28;20040;-58
2021/11/16 02:59:11;;;;;;;3.65;2.13;;;21.60;49.10;;;;;;5071311;28;20028;-55
2021/11/16 03:01:40;;;;;;;3.72;1.83;;;22.10;51.40;;;;;;5070733;28;20025;-61
2021/11/16 03:04:08;;;;;;;4.50;1.30;;;21.90;48.40;;;;;;5066802;28;20025;-60
2021/11/16 03:06:35;;;;;;;3.42;1.85;;;21.80;49.00;;;;;;5070624;28;20025;-62
2021/11/16 03:09:03;;;;;;;6.93;1.63;;;21.70;52.20;;;;;;5069789;28;20374;-61
2021/11/16 03:11:31;;;;;;;3.78;1.52;;;21.80;47.90;;;;;;5070076;28;20139;-60
2021/11/16 03:13:59;;;;;;;5.82;1.20;;;21.40;50.00;;;;;;5065719;28;20522;-60
2021/11/16 03:16:26;;;;;;;3.25;1.42;;;21.50;49.40;;;;;;5070433;28;20044;-56
2021/11/16 03:18:55;;;;;;;3.63;2.00;;;21.90;52.30;;;;;;5069154;28;20146;-61
2021/11/16 03:21:25;;;;;;;8.68;6.65;;;21.60;52.80;;;;;;5070108;28;20063;-57
2021/11/16 03:23:53;;;;;;;5.03;1.63;;;22.00;53.10;;;;;;5073084;28;20017;-58
2021/11/16 03:26:24;;;;;;;5.00;1.95;;;22.10;52.50;;;;;;5070964;28;20040;-55
2021/11/16 03:28:53;;;;;;;3.13;1.55;;;22.20;52.70;;;;;;5073430;28;20047;-56
2021/11/16 03:31:37;;;;;;;4.25;1.80;;;22.40;53.00;;;;;;5073594;28;20032;-54
2021/11/16 03:34:05;;;;;;;2.95;1.75;;;22.40;53.00;;;;;;5073666;28;20024;-51
2021/11/16 03:36:33;;;;;;;3.70;1.63;;;22.50;52.80;;;;;;5071944;28;20063;-57
2021/11/16 03:39:03;;;;;;;3.67;1.60;;;22.60;52.10;;;;;;5073419;28;20378;-50
2021/11/16 03:41:31;;;;;;;4.13;1.70;;;22.60;53.00;;;;;;5072256;28;20039;-59
2021/11/16 03:43:59;;;;;;;3.63;1.85;;;22.60;52.00;;;;;;5072982;28;20048;-58
2021/11/16 03:46:26;;;;;;;2.35;1.30;;;22.60;52.40;;;;;;5071769;28;20386;-57
2021/11/16 03:48:54;;;;;;;5.43;1.73;;;22.60;53.20;;;;;;5071686;28;20012;-57
2021/11/16 03:51:22;;;;;;;4.80;1.55;;;22.70;53.20;;;;;;5072173;28;20028;-52
2021/11/16 03:53:49;;;;;;;4.45;2.03;;;22.70;53.20;;;;;;5052472;28;20079;-57
2021/11/16 03:56:20;;;;;;;4.43;1.77;;;22.70;53.00;;;;;;5052884;28;20051;-57
2021/11/16 03:58:48;;;;;;;5.32;2.03;;;22.70;52.70;;;;;;5052630;28;20033;-60
2021/11/16 04:01:17;;;;;;;2.72;1.58;;;22.70;52.20;;;;;;5052356;28;20017;-55
2021/11/16 04:03:45;;;;;;;2.20;1.50;;;22.70;53.20;;;;;;5052535;28;20032;-57
2021/11/16 04:06:14;;;;;;;2.90;1.30;;;22.70;53.50;;;;;;5052612;28;20151;-60
2021/11/16 04:08:41;;;;;;;2.95;1.50;;;22.70;52.70;;;;;;5052302;28;20320;-59
2021/11/16 04:11:08;;;;;;;1.92;1.40;;;22.70;53.80;;;;;;5052741;28;20090;-58
2021/11/16 04:13:36;;;;;;;2.90;1.30;;;22.70;53.60;;;;;;5052382;28;20027;-59
2021/11/16 04:16:04;;;;;;;3.53;1.00;;;22.70;53.10;;;;;;5051919;28;20086;-56
2021/11/16 04:18:32;;;;;;;2.08;0.98;;;22.70;54.00;;;;;;5052071;28;20036;-58
2021/11/16 04:21:02;;;;;;;2.42;1.40;;;22.70;52.40;;;;;;5052057;28;20024;-57
2021/11/16 04:23:30;;;;;;;3.22;1.52;;;22.70;53.90;;;;;;5052101;28;20021;-60
2021/11/16 04:25:58;;;;;;;3.47;1.13;;;22.70;52.70;;;;;;5042727;28;20033;-54
2021/11/16 04:28:26;;;;;;;2.20;1.40;;;22.70;53.60;;;;;;5049123;28;20025;-56
2021/11/16 04:30:59;;;;;;;3.90;1.15;;;22.70;53.50;;;;;;5049269;28;20036;-55
2021/11/16 04:33:27;;;;;;;4.57;1.50;;;22.70;53.30;;;;;;5049830;28;20021;-57
2021/11/16 04:35:55;;;;;;;3.03;1.45;;;22.70;53.90;;;;;;5047100;28;20033;-57
2021/11/16 04:38:23;;;;;;;2.25;1.23;;;22.80;53.40;;;;;;5049240;28;20468;-56
2021/11/16 04:40:55;;;;;;;1.35;1.00;;;22.70;53.50;;;;;;5049573;28;20136;-60
2021/11/16 04:43:26;;;;;;;3.67;1.30;;;22.80;53.60;;;;;;5048358;28;20025;-57
2021/11/16 04:45:57;;;;;;;2.78;1.10;;;22.80;52.80;;;;;;5046513;28;20064;-55
2021/11/16 04:48:45;;;;;;;2.42;1.23;;;22.70;54.10;;;;;;5049243;28;20025;-57
2021/11/16 05:04:50;;;;;;;2.58;1.00;;;22.70;53.80;;;;;;5049167;28;20055;-53
2021/11/16 05:07:20;;;;;;;1.83;0.88;;;22.70;54.60;;;;;;5045499;28;20049;-57
2021/11/16 05:09:59;;;;;;;2.63;0.70;;;22.70;54.50;;;;;;5049431;28;20029;-56
2021/11/16 05:12:29;;;;;;;1.42;0.88;;;22.70;54.10;;;;;;5048436;28;20029;-59
2021/11/16 05:14:58;;;;;;;3.08;1.00;;;22.70;54.30;;;;;;5049329;28;20045;-60
2021/11/16 05:17:25;;;;;;;2.20;1.20;;;22.60;54.10;;;;;;5045332;28;20087;-57
2021/11/16 05:19:53;;;;;;;2.03;0.93;;;22.60;54.60;;;;;;5048998;28;20329;-56
2021/11/16 05:22:21;;;;;;;0.73;0.63;;;22.60;55.10;;;;;;5049069;28;20040;-61
2021/11/16 05:24:48;;;;;;;2.38;1.20;;;22.60;55.00;;;;;;5048963;28;20025;-58
2021/11/16 05:27:16;;;;;;;2.25;0.70;;;22.60;54.60;;;;;;5045666;28;20060;-52
2021/11/16 05:29:44;;;;;;;3.63;1.02;;;22.60;54.40;;;;;;5048754;28;20025;-54
2021/11/16 05:32:12;;;;;;;4.90;1.17;;;22.60;55.70;;;;;;5049088;28;20035;-56
2021/11/16 05:34:39;;;;;;;1.20;0.68;;;22.60;55.00;;;;;;5047368;28;20442;-56
2021/11/16 05:37:17;;;;;;;4.25;1.02;;;22.60;54.90;;;;;;5049103;28;20106;-57
2021/11/16 05:39:47;;;;;;;2.22;0.98;;;22.50;54.70;;;;;;5048376;28;20025;-56
2021/11/16 05:42:18;;;;;;;4.63;1.10;;;22.50;55.40;;;;;;5052280;28;20027;-57
2021/11/16 05:44:46;;;;;;;3.92;1.13;;;22.50;54.80;;;;;;5054372;28;20028;-56
2021/11/16 05:47:13;;;;;;;5.00;1.05;;;22.50;51.40;;;;;;5054452;28;20021;-56
2021/11/16 05:49:40;;;;;;;4.18;1.10;;;22.50;52.80;;;;;;5053155;28;20033;-56
2021/11/16 05:52:08;;;;;;;3.83;1.20;;;22.50;53.90;;;;;;5059706;28;20044;-59
2021/11/16 05:54:43;;;;;;;2.80;1.05;;;22.40;51.30;;;;;;5074451;28;20108;-56
2021/11/16 05:57:11;;;;;;;4.00;1.05;;;22.40;53.50;;;;;;5074393;28;20037;-56
2021/11/16 05:59:43;;;;;;;4.60;1.27;;;22.30;51.20;;;;;;5074578;28;20062;-57
2021/11/16 06:02:14;;;;;;;4.13;1.02;;;22.20;51.00;;;;;;5074075;28;20028;-55
2021/11/16 06:04:51;;;;;;;3.13;1.10;;;22.20;52.60;;;;;;5074093;28;20024;-55
2021/11/16 06:07:18;;;;;;;5.50;1.00;;;22.20;51.80;;;;;;5074696;28;20031;-55
2021/11/16 06:09:55;;;;;;;6.10;1.20;;;22.20;53.60;;;;;;5074881;28;20029;-61
2021/11/16 06:12:25;;;;;;;4.57;1.10;;;22.20;53.30;;;;;;5074169;28;20476;-58
2021/11/16 06:14:53;;;;;;;2.92;1.17;;;22.10;51.40;;;;;;5069580;28;20024;-60
2021/11/16 06:17:22;;;;;;;4.32;1.10;;;22.10;53.70;;;;;;5072911;28;20028;-57
2021/11/16 06:19:50;;;;;;;4.45;1.23;;;22.00;52.90;;;;;;5072611;28;20025;-56
2021/11/16 06:22:18;;;;;;;8.82;1.13;;;22.00;53.20;;;;;;5073758;28;20044;-56
2021/11/16 06:24:45;;;;;;;2.72;1.00;;;22.00;53.10;;;;;;5074021;28;20081;-58
2021/11/16 06:27:13;;;;;;;2.50;0.95;;;21.90;53.00;;;;;;5073343;28;20475;-55
2021/11/16 06:29:40;;;;;;;2.83;0.80;;;22.00;54.60;;;;;;5073801;28;20063;-58
2021/11/16 06:32:10;;;;;;;6.32;1.85;;;22.00;54.80;;;;;;5073769;28;20032;-60
2021/11/16 06:34:38;;;;;;;2.35;0.98;;;21.90;54.00;;;;;;5073638;28;20064;-58
2021/11/16 06:37:06;;;;;;;6.93;1.40;;;21.90;52.50;;;;;;5072855;28;20396;-59
2021/11/16 06:39:33;;;;;;;4.22;1.30;;;21.90;53.50;;;;;;5073558;28;20475;-57
2021/11/16 06:42:01;;;;;;;2.90;1.20;;;21.80;52.80;;;;;;5073663;28;20031;-60
2021/11/16 06:44:28;;;;;;;2.90;0.85;;;21.80;54.00;;;;;;5073520;28;20024;-60
2021/11/16 06:46:56;;;;;;;4.03;1.35;;;21.90;54.00;;;;;;5073429;28;20048;-61
2021/11/16 06:49:23;;;;;;;4.47;1.23;;;21.80;53.10;;;;;;5072678;28;20021;-57
2021/11/16 06:51:54;;;;;;;4.30;1.45;;;21.70;54.70;;;;;;5073253;28;20048;-58
2021/11/16 06:54:26;;;;;;;3.25;1.20;;;21.50;55.30;;;;;;5069644;28;20130;-58
2021/11/16 06:56:58;;;;;;;5.18;1.02;;;21.60;55.00;;;;;;5073731;28;20032;-59
2021/11/16 06:59:26;;;;;;;3.25;0.90;;;21.50;55.00;;;;;;5065433;28;20024;-64
2021/11/16 07:01:55;;;;;;;2.85;0.90;;;21.50;54.40;;;;;;5065335;28;20028;-64
2021/11/16 07:04:22;;;;;;;8.27;2.08;;;21.50;53.70;;;;;;5071113;28;20024;-57
2021/11/16 07:06:52;;;;;;;4.43;1.40;;;21.50;53.20;;;;;;5071096;28;20098;-55
2021/11/16 07:09:21;;;;;;;2.72;0.85;;;21.60;54.80;;;;;;5070052;28;20032;-58
2021/11/16 07:11:54;;;;;;;3.47;1.05;;;21.60;54.70;;;;;;5069171;28;20044;-57
2021/11/16 07:14:30;;;;;;;3.13;0.90;;;21.50;54.00;;;;;;5070838;28;20098;-58
2021/11/16 07:17:00;;;;;;;2.05;0.77;;;21.60;54.80;;;;;;5071038;28;20063;-61
2021/11/16 07:19:43;;;;;;;4.15;0.93;;;21.50;54.40;;;;;;5067940;28;20021;-59
2021/11/16 07:22:30;;;;;;;2.95;0.90;;;21.50;54.00;;;;;;5067000;28;20031;-58
2021/11/16 07:25:09;;;;;;;4.13;1.33;;;21.50;54.80;;;;;;5067348;28;20081;-58
2021/11/16 07:27:38;;;;;;;6.97;1.08;;;21.50;53.80;;;;;;5070403;28;20473;-60
2021/11/16 07:30:09;;;;;;;3.78;1.00;;;21.50;53.20;;;;;;5070522;28;20498;-57
2021/11/16 07:33:14;;;;;;;1.95;0.90;;;21.50;54.30;;;;;;5067017;28;20388;-59
2021/11/16 07:35:44;;;;;;;3.92;1.33;;;21.50;54.00;;;;;;5063606;28;20068;-60
2021/11/16 07:38:15;;;;;;;3.13;1.58;;;21.40;53.90;;;;;;5070138;28;20043;-59
2021/11/16 07:40:46;;;;;;;4.50;2.85;;;21.40;54.70;;;;;;5065497;28;20048;-61
2021/11/16 07:43:22;;;;;;;9.55;5.22;;;21.40;54.60;;;;;;5067725;28;20035;-62
2021/11/16 07:45:53;;;;;;;9.65;5.90;;;21.30;55.00;;;;;;5067026;28;20032;-59
2021/11/16 07:48:25;;;;;;;16.48;9.10;;;21.30;55.80;;;;;;5070540;28;20027;-58
2021/11/16 07:51:06;;;;;;;30.73;18.27;;;21.30;53.40;;;;;;5068184;28;20055;-58
2021/11/16 07:53:39;;;;;;;29.33;16.55;;;21.30;54.60;;;;;;5067260;28;20067;-54
2021/11/16 07:56:25;;;;;;;49.53;30.08;;;21.10;54.10;;;;;;5069714;28;20036;-57
2021/11/16 07:58:59;;;;;;;36.55;21.10;;;21.20;55.30;;;;;;5066866;28;20027;-58
2021/11/16 08:01:57;;;;;;;38.63;22.40;;;21.20;55.80;;;;;;5069322;28;20040;-59
2021/11/16 08:07:06;;;;;;;37.08;24.73;;;21.20;55.90;;;;;;5069288;28;20052;-61
2021/11/16 08:12:30;;;;;;;46.00;26.40;;;21.20;56.10;;;;;;5068072;28;20432;-57
2021/11/16 08:15:12;;;;;;;52.08;31.08;;;21.20;56.00;;;;;;5067463;28;20024;-55
2021/11/16 08:17:42;;;;;;;50.50;30.92;;;21.20;56.10;;;;;;5069429;28;20509;-53
2021/11/16 08:20:14;;;;;;;52.63;30.83;;;21.20;55.90;;;;;;5070107;28;20025;-55
2021/11/16 08:22:46;;;;;;;44.60;27.35;;;21.20;56.00;;;;;;5066110;28;20191;-57
2021/11/16 08:25:13;;;;;;;;;;;21.20;55.80;;;;;;5069669;28;20021;-54
2021/11/16 08:27:43;;;;;;;48.83;27.98;;;21.20;56.10;;;;;;5069875;28;20404;-51
2021/11/16 08:30:23;;;;;;;45.58;28.95;;;21.20;56.10;;;;;;5069673;28;20051;-55
2021/11/16 08:32:57;;;;;;;49.38;30.20;;;21.20;56.30;;;;;;5066965;28;20028;-56
2021/11/16 08:35:25;;;;;;;49.92;31.08;;;21.10;56.60;;;;;;5066649;28;20033;-53
2021/11/16 08:38:00;;;;;;;50.58;30.50;;;21.10;57.00;;;;;;5069939;28;20028;-56
2021/11/16 08:40:33;;;;;;;48.33;29.95;;;21.10;57.40;;;;;;5066482;28;20089;-53
2021/11/16 08:43:17;;;;;;;42.20;27.17;;;21.10;57.60;;;;;;5066351;28;20428;-57
2021/11/16 08:45:53;;;;;;;45.33;28.75;;;21.10;57.80;;;;;;5069746;28;20033;-55
2021/11/16 08:48:23;;;;;;;45.33;29.42;;;21.10;57.90;;;;;;5063930;28;20032;-57
2021/11/16 08:50:55;;;;;;;42.42;26.67;;;21.00;58.20;;;;;;5067049;28;20033;-56
2021/11/16 08:53:32;;;;;;;43.70;28.27;;;21.00;58.10;;;;;;5062519;28;20051;-57
2021/11/16 08:56:12;;;;;;;42.80;28.60;;;21.00;58.10;;;;;;5064073;28;20036;-56
2021/11/16 08:58:39;;;;;;;45.60;27.17;;;21.00;58.10;;;;;;5066017;28;20029;-55
2021/11/16 09:01:09;;;;;;;41.05;26.55;;;21.00;58.30;;;;;;5067148;28;20071;-51
2021/11/16 09:03:43;;;;;;;46.55;28.15;;;21.00;58.50;;;;;;5064774;28;20027;-54
2021/11/16 09:06:22;;;;;;;48.47;28.63;;;21.00;60.10;;;;;;5066782;28;20328;-50
2021/11/16 09:09:22;;;;;;;52.97;27.33;;;21.00;61.30;;;;;;5067358;28;20467;-53
2021/11/16 09:12:15;;;;;;;70.18;38.83;;;21.00;60.70;;;;;;5042107;28;20036;-54
2021/11/16 09:14:53;;;;;;;105.60;55.15;;;21.00;61.50;;;;;;5068642;28;20401;-54
2021/11/16 09:17:20;;;;;;;129.75;68.90;;;21.00;61.40;;;;;;5068958;28;20197;-61
2021/11/16 09:19:49;;;;;;;127.70;66.97;;;21.00;61.50;;;;;;5072125;28;20379;-56
2021/11/16 09:22:19;;;;;;;180.25;98.60;;;20.90;60.80;;;;;;5069678;28;20163;-52
2021/11/16 09:24:51;;;;;;;209.38;107.72;;;20.90;61.20;;;;;;5071583;28;20399;-52
2021/11/16 09:27:40;;;;;;;222.05;123.00;;;21.00;61.40;;;;;;5073072;28;20043;-54
2021/11/16 09:30:08;;;;;;;210.77;115.50;;;20.90;61.20;;;;;;5069904;28;20433;-57
2021/11/16 09:32:35;;;;;;;222.38;119.22;;;20.90;60.80;;;;;;5069273;28;20033;-60
2021/11/16 09:35:03;;;;;;;215.63;118.90;;;20.90;61.00;;;;;;5072637;28;20031;-53
2021/11/16 09:37:32;;;;;;;240.88;133.27;;;20.90;60.70;;;;;;5069027;28;20040;-56
2021/11/16 09:40:04;;;;;;;219.20;124.45;;;20.90;60.80;;;;;;5072557;28;20032;-57
2021/11/16 09:42:34;;;;;;;211.13;126.93;;;20.90;60.50;;;;;;5068414;28;20639;-53
2021/11/16 09:45:10;;;;;;;218.65;126.22;;;20.90;60.40;;;;;;5068469;28;20757;-57
2021/11/16 09:47:40;;;;;;;215.70;122.18;;;20.80;60.30;;;;;;5069598;28;20029;-60
2021/11/16 09:50:12;;;;;;;216.77;122.80;;;20.80;60.30;;;;;;5072176;28;20069;-57
2021/11/16 09:52:43;;;;;;;220.20;121.22;;;20.80;60.30;;;;;;5070215;28;20056;-49
2021/11/16 09:55:20;;;;;;;217.85;119.07;;;20.80;60.30;;;;;;5072579;28;20058;-56
2021/11/16 09:58:02;;;;;;;207.73;115.95;;;20.80;60.30;;;;;;5070527;28;20130;-55
2021/11/16 10:00:41;;;;;;;217.07;117.68;;;20.70;60.10;;;;;;5071170;28;20475;-51
2021/11/16 10:03:11;;;;;;;196.00;112.45;;;20.70;60.20;;;;;;5068466;28;20029;-58
2021/11/16 10:05:42;;;;;;;201.13;115.45;;;20.70;60.00;;;;;;5072426;28;20036;-56
2021/11/16 10:08:15;;;;;;;193.05;110.40;;;20.60;60.00;;;;;;5074824;28;20027;-62
2021/11/16 10:10:48;;;;;;;194.85;105.28;;;20.60;59.90;;;;;;5075406;28;20025;-57
2021/11/16 10:13:20;;;;;;;190.90;106.18;;;20.60;60.10;;;;;;5068477;28;20032;-61
2021/11/16 10:15:50;;;;;;;189.80;105.32;;;20.50;60.30;;;;;;5071326;28;20085;-59
2021/11/16 10:18:20;;;;;;;174.98;100.13;;;20.50;60.10;;;;;;5072268;28;20024;-60
2021/11/16 10:20:48;;;;;;;174.88;100.90;;;20.50;60.00;;;;;;5070184;28;20081;-61
2021/11/16 10:23:28;;;;;;;178.02;103.25;;;20.50;60.00;;;;;;5071857;28;20024;-56
2021/11/16 10:25:58;;;;;;;179.55;101.20;;;20.50;60.00;;;;;;5071758;28;20016;-55
2021/11/16 10:28:27;;;;;;;171.85;97.85;;;20.50;59.90;;;;;;5066440;28;20024;-61
2021/11/16 10:30:58;;;;;;;175.60;96.07;;;20.40;59.70;;;;;;5069981;28;20021;-53
2021/11/16 10:33:29;;;;;;;184.53;98.13;;;20.40;59.70;;;;;;5071388;28;20119;-61
2021/11/16 10:36:11;;;;;;;149.02;88.65;;;20.40;59.70;;;;;;5067874;28;20327;-55
2021/11/16 10:38:45;;;;;;;156.38;89.00;;;20.40;59.30;;;;;;5069328;28;20032;-58
2021/11/16 10:41:24;;;;;;;150.65;85.95;;;20.40;59.50;;;;;;5066567;28;20123;-59
2021/11/16 10:44:21;;;;;;;157.30;86.05;;;20.40;59.60;;;;;;5071665;28;20063;-52
2021/11/16 10:46:48;;;;;;;158.82;86.75;;;20.40;59.30;;;;;;5070346;28;20040;-61
2021/11/16 10:49:20;;;;;;;147.57;85.68;;;20.40;59.30;;;;;;5071355;28;20032;-56
2021/11/16 10:51:49;;;;;;;145.73;83.43;;;20.40;59.30;;;;;;5065636;28;20156;-57
2021/11/16 10:54:18;;;;;;;151.00;85.85;;;20.40;59.30;;;;;;5071409;28;20428;-55
2021/11/16 10:56:48;;;;;;;137.85;81.13;;;20.40;59.30;;;;;;5071594;28;20040;-53
2021/11/16 10:59:26;;;;;;;134.60;80.22;;;20.30;59.20;;;;;;5070047;28;20375;-55
2021/11/16 11:01:57;;;;;;;142.13;80.88;;;20.40;59.20;;;;;;5069618;28;20497;-57
2021/11/16 11:04:28;;;;;;;142.73;79.32;;;20.40;59.10;;;;;;5071449;28;20379;-56
2021/11/16 11:07:08;;;;;;;133.55;77.05;;;20.30;59.10;;;;;;5071324;28;20021;-58
2021/11/16 11:09:35;;;;;;;129.77;75.22;;;20.30;58.90;;;;;;5064960;28;20062;-56
2021/11/16 11:12:04;;;;;;;131.60;74.43;;;20.30;58.90;;;;;;5070800;28;20036;-54
2021/11/16 11:14:39;;;;;;;131.52;71.95;;;20.30;58.90;;;;;;5067414;28;20501;-61
2021/11/16 11:17:11;;;;;;;125.97;70.57;;;20.30;58.90;;;;;;5068007;28;20032;-59
2021/11/16 11:19:41;;;;;;;118.35;67.28;;;20.30;58.70;;;;;;5066338;28;20475;-58
2021/11/16 11:24:50;;;;;;;114.85;68.97;;;20.20;59.00;;;;;;5072112;28;20020;-55
2021/11/16 11:27:34;;;;;;;119.68;68.85;;;20.20;59.00;;;;;;5073297;28;20027;-56
2021/11/16 11:30:08;;;;;;;117.47;68.45;;;20.20;59.00;;;;;;5073587;28;20056;-56
2021/11/16 11:32:38;;;;;;;118.13;68.05;;;20.20;59.00;;;;;;5055101;28;20396;-56
2021/11/16 11:35:17;;;;;;;108.38;64.25;;;20.10;59.00;;;;;;5071399;28;20542;-60
2021/11/16 11:37:53;;;;;;;114.25;63.63;;;20.20;59.80;;;;;;5073976;28;20039;-56
2021/11/16 11:40:32;;;;;;;112.25;65.15;;;20.10;59.30;;;;;;5073007;28;20096;-57
2021/11/16 11:43:03;;;;;;;102.75;60.65;;;20.10;59.20;;;;;;5073592;28;20100;-56
2021/11/16 11:45:39;;;;;;;98.22;58.65;;;20.10;59.40;;;;;;5073568;28;20033;-54
2021/11/16 11:48:27;;;;;;;96.10;56.78;;;20.00;59.40;;;;;;5073452;28;20074;-56
2021/11/16 11:51:10;;;;;;;96.45;58.00;;;20.00;59.30;;;;;;5073432;28;20027;-55
2021/11/16 11:53:41;;;;;;;101.05;58.28;;;20.00;59.30;;;;;;5072998;28;20056;-56
2021/11/16 11:56:15;;;;;;;92.22;57.15;;;20.00;59.30;;;;;;5073450;28;20170;-52
2021/11/16 11:58:45;;;;;;;101.18;58.35;;;20.00;59.30;;;;;;5073282;28;20089;-53
2021/11/16 12:01:15;;;;;;;95.97;58.03;;;20.00;59.40;;;;;;5073655;28;20099;-57
2021/11/16 12:03:45;;;;;;;100.78;56.95;;;20.00;59.40;;;;;;5073481;28;20387;-57
2021/11/16 12:06:13;;;;;;;89.47;55.33;;;20.00;59.40;;;;;;5073331;28;20479;-59
2021/11/16 12:08:40;;;;;;;94.28;54.58;;;19.90;59.30;;;;;;5072970;28;20115;-58
2021/11/16 12:11:11;;;;;;;86.10;51.78;;;19.90;59.30;;;;;;5073002;28;20495;-52
2021/11/16 12:13:39;;;;;;;88.35;51.70;;;19.90;59.30;;;;;;5072647;28;20075;-56
2021/11/16 12:16:21;;;;;;;87.05;51.30;;;19.90;59.30;;;;;;5072862;28;20032;-57
2021/11/16 12:19:03;;;;;;;87.68;51.22;;;19.90;59.30;;;;;;5072688;28;20104;-58
2021/11/16 12:21:36;;;;;;;87.03;50.17;;;19.90;59.30;;;;;;5072303;28;20502;-58
2021/11/16 12:24:12;;;;;;;80.13;48.53;;;19.90;59.30;;;;;;5072670;28;20025;-52
2021/11/16 12:27:04;;;;;;;81.72;47.50;;;19.90;59.40;;;;;;5072728;28;20109;-55
2021/11/16 12:29:52;;;;;;;76.15;46.88;;;19.90;59.40;;;;;;5072272;28;20025;-58
2021/11/16 12:32:29;;;;;;;78.43;46.85;;;19.90;59.40;;;;;;5072425;28;20509;-57
2021/11/16 12:35:23;;;;;;;80.40;47.47;;;19.90;59.40;;;;;;5072681;28;20024;-51
2021/11/16 12:37:51;;;;;;;77.93;46.13;;;19.90;59.40;;;;;;5069333;28;20395;-61
2021/11/16 12:40:19;;;;;;;79.00;44.00;;;19.80;59.40;;;;;;5066160;28;20501;-58
2021/11/16 12:43:15;;;;;;;77.80;44.83;;;19.80;59.40;;;;;;5066444;28;20123;-57
2021/11/16 12:45:50;;;;;;;78.65;45.90;;;19.80;59.50;;;;;;5064288;28;20570;-57
2021/11/16 12:48:56;;;;;;;74.75;44.60;;;19.80;59.40;;;;;;5068606;28;20032;-57
2021/11/16 12:51:27;;;;;;;71.18;42.78;;;19.70;59.30;;;;;;5068674;28;20032;-57
2021/11/16 12:54:21;;;;;;;66.18;40.25;;;19.70;59.40;;;;;;5072941;28;20131;-58
2021/11/16 12:56:50;;;;;;;72.03;41.05;;;19.70;59.30;;;;;;5069633;28;20041;-58
2021/11/16 12:59:37;;;;;;;69.43;40.47;;;19.70;59.20;;;;;;5073039;28;20028;-56
2021/11/16 13:02:19;;;;;;;69.70;40.08;;;19.60;59.10;;;;;;5073959;28;20042;-56
2021/11/16 13:04:54;;;;;;;63.70;38.30;;;19.70;59.10;;;;;;5070916;28;20036;-58
2021/11/16 13:07:26;;;;;;;65.80;39.05;;;19.60;59.00;;;;;;5070727;28;20372;-53
2021/11/16 13:10:02;;;;;;;62.10;38.47;;;19.60;59.00;;;;;;5073031;28;20498;-57
2021/11/16 13:12:35;;;;;;;59.70;37.63;;;19.60;59.00;;;;;;5073362;28;20040;-57
2021/11/16 13:15:20;;;;;;;62.63;36.85;;;19.60;59.00;;;;;;5073295;28;20032;-58
2021/11/16 13:17:52;;;;;;;59.72;35.97;;;19.60;59.00;;;;;;5066583;28;20041;-58
2021/11/16 13:20:42;;;;;;;58.10;36.23;;;19.60;59.00;;;;;;5073981;28;20020;-56